sensor_id;sensor_type;location;lat;lon;timestamp;pressure;altitude;pressure_sealevel;temperature;humidity
163;BME280;3946;48.958;8.284;2024-01-16T00:02:29;100070.66;;;0.25;97.35
163;BME280;3946;48.958;8.284;2024-01-16T00:05:15;100067.19;;;0.27;97.61
163;BME280;3946;48.958;8.284;2024-01-16T00:08:00;100065.66;;;0.20;97.48
163;BME280;3946;48.958;8.284;2024-01-16T00:10:46;100072.50;;;0.18;97.29
163;BME280;3946;48.958;8.284;2024-01-16T00:13:32;100076.59;;;0.25;97.45
163;BME280;3946;48.958;8.284;2024-01-16T00:16:19;100068.19;;;0.22;97.28
163;BME280;3946;48.958;8.284;2024-01-16T00:19:05;100079.94;;;0.27;97.23
163;BME280;3946;48.958;8.284;2024-01-16T00:21:50;100076.59;;;0.25;97.12
163;BME280;3946;48.958;8.284;2024-01-16T00:24:36;100077.38;;;0.27;97.11
163;BME280;3946;48.958;8.284;2024-01-16T00:27:21;100076.47;;;0.30;97.37
163;BME280;3946;48.958;8.284;2024-01-16T00:30:07;100072.25;;;0.29;97.53
163;BME280;3946;48.958;8.284;2024-01-16T00:32:54;100068.63;;;0.38;97.30
163;BME280;3946;48.958;8.284;2024-01-16T00:35:39;100072.13;;;0.33;96.32
163;BME280;3946;48.958;8.284;2024-01-16T00:38:24;100065.41;;;0.31;97.44
163;BME280;3946;48.958;8.284;2024-01-16T00:41:10;100061.09;;;0.33;97.67
163;BME280;3946;48.958;8.284;2024-01-16T00:43:55;100068.69;;;0.34;96.81
163;BME280;3946;48.958;8.284;2024-01-16T00:46:40;100065.13;;;0.42;97.14
163;BME280;3946;48.958;8.284;2024-01-16T00:49:27;100063.31;;;0.45;96.22
163;BME280;3946;48.958;8.284;2024-01-16T00:52:12;100063.28;;;0.47;96.28
163;BME280;3946;48.958;8.284;2024-01-16T00:54:58;100070.06;;;0.48;96.15
163;BME280;3946;48.958;8.284;2024-01-16T00:57:43;100070.94;;;0.47;96.01
163;BME280;3946;48.958;8.284;2024-01-16T01:00:28;100068.56;;;0.39;96.57
163;BME280;3946;48.958;8.284;2024-01-16T01:03:15;100073.63;;;0.41;96.82
163;BME280;3946;48.958;8.284;2024-01-16T01:06:05;100067.28;;;0.24;97.35
163;BME280;3946;48.958;8.284;2024-01-16T01:08:50;100077.47;;;0.24;97.34
163;BME280;3946;48.958;8.284;2024-01-16T01:11:36;100074.50;;;0.07;97.55
163;BME280;3946;48.958;8.284;2024-01-16T01:14:21;100078.22;;;0.28;97.90
163;BME280;3946;48.958;8.284;2024-01-16T01:17:07;100081.09;;;0.16;97.83
163;BME280;3946;48.958;8.284;2024-01-16T01:19:52;100080.50;;;0.05;97.84
163;BME280;3946;48.958;8.284;2024-01-16T01:22:39;100085.63;;;0.03;97.98
163;BME280;3946;48.958;8.284;2024-01-16T01:25:24;100083.13;;;0.02;98.03
163;BME280;3946;48.958;8.284;2024-01-16T01:28:10;100090.59;;;0.09;98.84
163;BME280;3946;48.958;8.284;2024-01-16T01:30:55;100084.66;;;0.09;98.78
163;BME280;3946;48.958;8.284;2024-01-16T01:33:41;100099.91;;;0.10;98.42
163;BME280;3946;48.958;8.284;2024-01-16T01:36:26;100095.63;;;0.12;98.58
163;BME280;3946;48.958;8.284;2024-01-16T01:39:13;100103.44;;;0.05;98.55
163;BME280;3946;48.958;8.284;2024-01-16T01:41:59;100102.53;;;0.07;98.93
163;BME280;3946;48.958;8.284;2024-01-16T01:44:44;100093.25;;;0.05;99.59
163;BME280;3946;48.958;8.284;2024-01-16T01:47:30;100093.53;;;-0.06;99.15
163;BME280;3946;48.958;8.284;2024-01-16T01:50:16;100097.50;;;0.04;99.41
163;BME280;3946;48.958;8.284;2024-01-16T01:53:05;100100.31;;;-0.07;99.63
163;BME280;3946;48.958;8.284;2024-01-16T01:55:52;100080.72;;;-0.39;100.00
163;BME280;3946;48.958;8.284;2024-01-16T01:58:38;100100.16;;;-0.34;99.85
163;BME280;3946;48.958;8.284;2024-01-16T02:01:24;100095.69;;;-0.26;100.00
163;BME280;3946;48.958;8.284;2024-01-16T02:04:10;100099.06;;;-0.24;100.00
163;BME280;3946;48.958;8.284;2024-01-16T02:06:57;100093.34;;;-0.34;100.00
163;BME280;3946;48.958;8.284;2024-01-16T02:09:43;100097.81;;;-0.44;100.00
163;BME280;3946;48.958;8.284;2024-01-16T02:12:30;100098.59;;;-0.42;100.00
163;BME280;3946;48.958;8.284;2024-01-16T02:15:15;100101.00;;;-0.34;100.00
163;BME280;3946;48.958;8.284;2024-01-16T02:18:00;100103.81;;;-0.48;100.00
163;BME280;3946;48.958;8.284;2024-01-16T02:20:47;100098.03;;;-0.53;100.00
163;BME280;3946;48.958;8.284;2024-01-16T02:23:34;100109.00;;;-0.51;100.00
163;BME280;3946;48.958;8.284;2024-01-16T02:26:19;100094.56;;;-0.49;100.00
163;BME280;3946;48.958;8.284;2024-01-16T02:29:05;100096.25;;;-0.49;100.00
163;BME280;3946;48.958;8.284;2024-01-16T02:31:50;100098.06;;;-0.54;100.00
163;BME280;3946;48.958;8.284;2024-01-16T02:34:36;100095.59;;;-0.59;100.00
163;BME280;3946;48.958;8.284;2024-01-16T02:37:21;100093.88;;;-0.57;99.63
163;BME280;3946;48.958;8.284;2024-01-16T02:40:09;100093.25;;;-0.66;100.00
163;BME280;3946;48.958;8.284;2024-01-16T02:42:54;100101.81;;;-0.71;100.00
163;BME280;3946;48.958;8.284;2024-01-16T02:45:40;100101.91;;;-0.75;99.73
163;BME280;3946;48.958;8.284;2024-01-16T02:48:25;100103.59;;;-0.74;100.00
163;BME280;3946;48.958;8.284;2024-01-16T02:51:10;100104.34;;;-0.71;99.50
163;BME280;3946;48.958;8.284;2024-01-16T02:53:56;100108.00;;;-0.82;99.49
163;BME280;3946;48.958;8.284;2024-01-16T02:56:42;100110.97;;;-1.02;99.34
163;BME280;3946;48.958;8.284;2024-01-16T02:59:28;100110.28;;;-1.12;100.00
163;BME280;3946;48.958;8.284;2024-01-16T03:02:14;100119.53;;;-1.08;100.00
163;BME280;3946;48.958;8.284;2024-01-16T03:04:59;100123.16;;;-1.18;100.00
163;BME280;3946;48.958;8.284;2024-01-16T03:07:45;100124.91;;;-1.21;100.00
163;BME280;3946;48.958;8.284;2024-01-16T03:10:30;100124.06;;;-1.22;100.00
163;BME280;3946;48.958;8.284;2024-01-16T03:13:17;100120.00;;;-1.30;100.00
163;BME280;3946;48.958;8.284;2024-01-16T03:16:06;100123.47;;;-1.34;100.00
163;BME280;3946;48.958;8.284;2024-01-16T03:18:51;100132.81;;;-1.36;100.00
163;BME280;3946;48.958;8.284;2024-01-16T03:21:37;100130.25;;;-1.35;100.00
163;BME280;3946;48.958;8.284;2024-01-16T03:24:22;100132.78;;;-1.35;100.00
163;BME280;3946;48.958;8.284;2024-01-16T03:27:07;100137.81;;;-1.32;100.00
163;BME280;3946;48.958;8.284;2024-01-16T03:29:54;100133.47;;;-1.27;100.00
163;BME280;3946;48.958;8.284;2024-01-16T03:32:40;100131.72;;;-1.23;100.00
163;BME280;3946;48.958;8.284;2024-01-16T03:35:25;100125.16;;;-1.33;100.00
163;BME280;3946;48.958;8.284;2024-01-16T03:38:11;100133.06;;;-1.49;100.00
163;BME280;3946;48.958;8.284;2024-01-16T03:40:56;100132.88;;;-1.41;100.00
163;BME280;3946;48.958;8.284;2024-01-16T03:43:41;100134.66;;;-1.45;100.00
163;BME280;3946;48.958;8.284;2024-01-16T03:46:28;100133.91;;;-1.50;100.00
163;BME280;3946;48.958;8.284;2024-01-16T03:49:13;100131.16;;;-1.39;100.00
163;BME280;3946;48.958;8.284;2024-01-16T03:51:58;100121.28;;;-1.54;100.00
163;BME280;3946;48.958;8.284;2024-01-16T03:54:43;100127.22;;;-1.54;100.00
163;BME280;3946;48.958;8.284;2024-01-16T03:57:29;100126.56;;;-1.65;100.00
163;BME280;3946;48.958;8.284;2024-01-16T04:00:14;100131.81;;;-1.76;100.00
163;BME280;3946;48.958;8.284;2024-01-16T04:03:02;100134.28;;;-1.71;100.00
163;BME280;3946;48.958;8.284;2024-01-16T04:05:47;100127.03;;;-1.92;100.00
163;BME280;3946;48.958;8.284;2024-01-16T04:08:34;100127.75;;;-1.84;100.00
163;BME280;3946;48.958;8.284;2024-01-16T04:11:19;100125.22;;;-1.84;100.00
163;BME280;3946;48.958;8.284;2024-01-16T04:14:04;100121.59;;;-1.71;100.00
163;BME280;3946;48.958;8.284;2024-01-16T04:16:50;100128.69;;;-1.91;100.00
163;BME280;3946;48.958;8.284;2024-01-16T04:19:37;100123.63;;;-1.91;100.00
163;BME280;3946;48.958;8.284;2024-01-16T04:22:23;100127.88;;;-1.93;100.00
163;BME280;3946;48.958;8.284;2024-01-16T04:25:08;100126.13;;;-1.90;100.00
163;BME280;3946;48.958;8.284;2024-01-16T04:27:54;100126.84;;;-1.80;100.00
163;BME280;3946;48.958;8.284;2024-01-16T04:30:39;100120.09;;;-1.83;100.00
163;BME280;3946;48.958;8.284;2024-01-16T04:33:24;100116.00;;;-1.91;100.00
163;BME280;3946;48.958;8.284;2024-01-16T04:36:11;100110.09;;;-1.92;100.00
163;BME280;3946;48.958;8.284;2024-01-16T04:38:56;100113.50;;;-1.93;100.00
163;BME280;3946;48.958;8.284;2024-01-16T04:41:42;100111.94;;;-2.00;100.00
163;BME280;3946;48.958;8.284;2024-01-16T04:44:27;100111.88;;;-1.95;100.00
163;BME280;3946;48.958;8.284;2024-01-16T04:47:12;100107.75;;;-2.02;100.00
163;BME280;3946;48.958;8.284;2024-01-16T04:49:58;100105.16;;;-1.99;100.00
163;BME280;3946;48.958;8.284;2024-01-16T04:52:44;100105.19;;;-2.01;100.00
163;BME280;3946;48.958;8.284;2024-01-16T04:55:30;100113.81;;;-2.11;100.00
163;BME280;3946;48.958;8.284;2024-01-16T04:58:15;100107.22;;;-2.23;100.00
163;BME280;3946;48.958;8.284;2024-01-16T05:01:00;100105.31;;;-2.10;100.00
163;BME280;3946;48.958;8.284;2024-01-16T05:03:46;100109.56;;;-2.11;100.00
163;BME280;3946;48.958;8.284;2024-01-16T05:06:31;100102.00;;;-2.14;100.00
163;BME280;3946;48.958;8.284;2024-01-16T05:09:18;100096.06;;;-2.13;100.00
163;BME280;3946;48.958;8.284;2024-01-16T05:12:04;100092.72;;;-2.15;100.00
163;BME280;3946;48.958;8.284;2024-01-16T05:14:49;100076.91;;;-2.30;100.00
163;BME280;3946;48.958;8.284;2024-01-16T05:17:35;100076.13;;;-2.35;100.00
163;BME280;3946;48.958;8.284;2024-01-16T05:20:20;100081.84;;;-2.23;100.00
163;BME280;3946;48.958;8.284;2024-01-16T05:23:06;100072.69;;;-2.30;100.00
163;BME280;3946;48.958;8.284;2024-01-16T05:25:53;100068.53;;;-2.35;100.00
163;BME280;3946;48.958;8.284;2024-01-16T05:28:38;100066.84;;;-2.36;100.00
163;BME280;3946;48.958;8.284;2024-01-16T05:31:23;100059.13;;;-2.29;100.00
163;BME280;3946;48.958;8.284;2024-01-16T05:34:09;100053.06;;;-2.22;100.00
163;BME280;3946;48.958;8.284;2024-01-16T05:36:54;100047.22;;;-2.27;100.00
163;BME280;3946;48.958;8.284;2024-01-16T05:39:39;100048.28;;;-2.38;100.00
163;BME280;3946;48.958;8.284;2024-01-16T05:42:26;100049.31;;;-2.49;100.00
163;BME280;3946;48.958;8.284;2024-01-16T05:45:11;100041.72;;;-2.50;100.00
163;BME280;3946;48.958;8.284;2024-01-16T05:47:57;100039.47;;;-2.68;100.00
163;BME280;3946;48.958;8.284;2024-01-16T05:50:43;100046.44;;;-2.83;100.00
163;BME280;3946;48.958;8.284;2024-01-16T05:53:28;100061.63;;;-2.83;100.00
163;BME280;3946;48.958;8.284;2024-01-16T05:56:13;100057.50;;;-2.90;100.00
163;BME280;3946;48.958;8.284;2024-01-16T05:59:00;100056.66;;;-2.90;100.00
163;BME280;3946;48.958;8.284;2024-01-16T06:01:45;100048.91;;;-2.78;100.00
163;BME280;3946;48.958;8.284;2024-01-16T06:04:31;100057.38;;;-2.79;100.00
163;BME280;3946;48.958;8.284;2024-01-16T06:07:16;100048.69;;;-2.63;100.00
163;BME280;3946;48.958;8.284;2024-01-16T06:10:01;100045.38;;;-2.68;100.00
163;BME280;3946;48.958;8.284;2024-01-16T06:12:46;100058.44;;;-2.40;100.00
163;BME280;3946;48.958;8.284;2024-01-16T06:15:33;100062.66;;;-2.39;100.00
163;BME280;3946;48.958;8.284;2024-01-16T06:18:18;100066.91;;;-2.39;100.00
163;BME280;3946;48.958;8.284;2024-01-16T06:21:04;100059.19;;;-2.32;100.00
163;BME280;3946;48.958;8.284;2024-01-16T06:23:50;100065.09;;;-2.31;100.00
163;BME280;3946;48.958;8.284;2024-01-16T06:26:35;100068.47;;;-2.31;100.00
163;BME280;3946;48.958;8.284;2024-01-16T06:29:20;100068.59;;;-2.40;100.00
163;BME280;3946;48.958;8.284;2024-01-16T06:32:07;100057.34;;;-2.25;100.00
163;BME280;3946;48.958;8.284;2024-01-16T06:34:52;100064.22;;;-2.30;100.00
163;BME280;3946;48.958;8.284;2024-01-16T06:37:38;100065.78;;;-2.23;100.00
163;BME280;3946;48.958;8.284;2024-01-16T06:40:23;100059.84;;;-2.21;100.00
163;BME280;3946;48.958;8.284;2024-01-16T06:43:08;100057.34;;;-2.25;100.00
163;BME280;3946;48.958;8.284;2024-01-16T06:45:55;100057.53;;;-2.34;100.00
163;BME280;3946;48.958;8.284;2024-01-16T06:48:41;100055.84;;;-2.35;100.00
163;BME280;3946;48.958;8.284;2024-01-16T06:51:27;100053.28;;;-2.32;100.00
163;BME280;3946;48.958;8.284;2024-01-16T06:54:12;100051.66;;;-2.38;100.00
163;BME280;3946;48.958;8.284;2024-01-16T06:56:58;100046.72;;;-2.45;100.00
163;BME280;3946;48.958;8.284;2024-01-16T06:59:43;100041.56;;;-2.42;100.00
163;BME280;3946;48.958;8.284;2024-01-16T07:02:28;100045.94;;;-2.51;100.00
163;BME280;3946;48.958;8.284;2024-01-16T07:05:15;100039.09;;;-2.44;100.00
163;BME280;3946;48.958;8.284;2024-01-16T07:08:00;100044.22;;;-2.47;100.00
163;BME280;3946;48.958;8.284;2024-01-16T07:10:45;100039.19;;;-2.52;100.00
163;BME280;3946;48.958;8.284;2024-01-16T07:13:31;100045.06;;;-2.48;100.00
163;BME280;3946;48.958;8.284;2024-01-16T07:16:16;100045.94;;;-2.51;100.00
163;BME280;3946;48.958;8.284;2024-01-16T07:19:02;100048.31;;;-2.41;100.00
163;BME280;3946;48.958;8.284;2024-01-16T07:21:48;100039.81;;;-2.37;100.00
163;BME280;3946;48.958;8.284;2024-01-16T07:24:34;100048.88;;;-2.24;100.00
163;BME280;3946;48.958;8.284;2024-01-16T07:27:19;100040.66;;;-2.37;100.00
163;BME280;3946;48.958;8.284;2024-01-16T07:30:05;100042.31;;;-2.36;100.00
163;BME280;3946;48.958;8.284;2024-01-16T07:32:51;100038.00;;;-2.29;100.00
163;BME280;3946;48.958;8.284;2024-01-16T07:35:36;100048.88;;;-2.23;100.00
163;BME280;3946;48.958;8.284;2024-01-16T07:38:23;100041.31;;;-2.26;100.00
163;BME280;3946;48.958;8.284;2024-01-16T07:41:08;100042.88;;;-2.19;100.00
163;BME280;3946;48.958;8.284;2024-01-16T07:43:53;100040.28;;;-2.14;100.00
163;BME280;3946;48.958;8.284;2024-01-16T07:46:39;100042.41;;;-1.91;100.00
163;BME280;3946;48.958;8.284;2024-01-16T07:49:24;100052.34;;;-1.79;100.00
163;BME280;3946;48.958;8.284;2024-01-16T07:52:10;100048.16;;;-1.82;100.00
163;BME280;3946;48.958;8.284;2024-01-16T07:54:57;100046.22;;;-1.69;100.00
163;BME280;3946;48.958;8.284;2024-01-16T07:57:42;100047.81;;;-1.63;100.00
163;BME280;3946;48.958;8.284;2024-01-16T08:00:28;100024.31;;;-1.74;100.00
163;BME280;3946;48.958;8.284;2024-01-16T08:03:13;100031.03;;;-1.72;100.00
163;BME280;3946;48.958;8.284;2024-01-16T08:05:58;100046.75;;;-1.53;100.00
163;BME280;3946;48.958;8.284;2024-01-16T08:08:44;100047.50;;;-1.47;100.00
163;BME280;3946;48.958;8.284;2024-01-16T08:11:31;100055.16;;;-1.50;100.00
163;BME280;3946;48.958;8.284;2024-01-16T08:14:20;100057.84;;;-1.57;100.00
163;BME280;3946;48.958;8.284;2024-01-16T08:17:05;100066.22;;;-1.52;100.00
163;BME280;3946;48.958;8.284;2024-01-16T08:19:50;100064.31;;;-1.43;100.00
163;BME280;3946;48.958;8.284;2024-01-16T08:22:36;100066.84;;;-1.41;100.00
163;BME280;3946;48.958;8.284;2024-01-16T08:25:21;100062.56;;;-1.39;100.00
163;BME280;3946;48.958;8.284;2024-01-16T08:28:08;100054.78;;;-1.30;100.00
163;BME280;3946;48.958;8.284;2024-01-16T08:30:53;100062.47;;;-1.33;100.00
163;BME280;3946;48.958;8.284;2024-01-16T08:33:38;100065.91;;;-1.37;100.00
163;BME280;3946;48.958;8.284;2024-01-16T08:36:24;100058.84;;;-1.23;100.00
163;BME280;3946;48.958;8.284;2024-01-16T08:39:09;100059.56;;;-1.16;100.00
163;BME280;3946;48.958;8.284;2024-01-16T08:41:54;100063.69;;;-1.11;100.00
163;BME280;3946;48.958;8.284;2024-01-16T08:44:43;100069.59;;;-1.10;100.00
163;BME280;3946;48.958;8.284;2024-01-16T08:47:28;100070.34;;;-1.05;100.00
163;BME280;3946;48.958;8.284;2024-01-16T08:50:13;100073.75;;;-1.06;100.00
163;BME280;3946;48.958;8.284;2024-01-16T08:52:59;100079.56;;;-0.99;100.00
163;BME280;3946;48.958;8.284;2024-01-16T08:55:44;100082.75;;;-0.91;100.00
163;BME280;3946;48.958;8.284;2024-01-16T08:58:30;100090.97;;;-0.80;100.00
163;BME280;3946;48.958;8.284;2024-01-16T09:01:20;100088.25;;;-0.71;100.00
163;BME280;3946;48.958;8.284;2024-01-16T09:04:06;100088.38;;;-0.77;100.00
163;BME280;3946;48.958;8.284;2024-01-16T09:06:51;100090.16;;;-0.81;100.00
163;BME280;3946;48.958;8.284;2024-01-16T09:09:37;100090.47;;;-0.56;100.00
163;BME280;3946;48.958;8.284;2024-01-16T09:12:22;100082.81;;;-0.56;100.00
163;BME280;3946;48.958;8.284;2024-01-16T09:15:09;100090.84;;;-0.36;99.98
163;BME280;3946;48.958;8.284;2024-01-16T09:17:55;100071.38;;;-0.38;100.00
163;BME280;3946;48.958;8.284;2024-01-16T09:20:41;100084.75;;;-0.30;98.72
163;BME280;3946;48.958;8.284;2024-01-16T09:23:27;100084.97;;;-0.04;98.87
163;BME280;3946;48.958;8.284;2024-01-16T09:26:12;100075.19;;;0.14;98.54
163;BME280;3946;48.958;8.284;2024-01-16T09:28:57;100074.16;;;0.21;96.82
163;BME280;3946;48.958;8.284;2024-01-16T09:31:43;100079.72;;;0.03;97.20
163;BME280;3946;48.958;8.284;2024-01-16T09:34:29;100082.41;;;-0.02;97.75
163;BME280;3946;48.958;8.284;2024-01-16T09:37:15;100077.56;;;0.20;96.14
163;BME280;3946;48.958;8.284;2024-01-16T09:40:00;100088.41;;;0.28;96.09
163;BME280;3946;48.958;8.284;2024-01-16T09:42:45;100086.09;;;0.19;96.27
163;BME280;3946;48.958;8.284;2024-01-16T09:45:31;100092.50;;;0.33;96.23
163;BME280;3946;48.958;8.284;2024-01-16T09:48:18;100089.16;;;0.64;95.35
163;BME280;3946;48.958;8.284;2024-01-16T09:51:05;100093.22;;;0.39;94.21
163;BME280;3946;48.958;8.284;2024-01-16T09:53:50;100100.25;;;0.61;94.03
163;BME280;3946;48.958;8.284;2024-01-16T09:56:41;100098.59;;;0.60;92.29
163;BME280;3946;48.958;8.284;2024-01-16T09:59:29;100098.09;;;0.48;92.74
163;BME280;3946;48.958;8.284;2024-01-16T10:02:14;100090.97;;;0.59;92.21
163;BME280;3946;48.958;8.284;2024-01-16T10:05:00;100086.25;;;0.76;91.54
163;BME280;3946;48.958;8.284;2024-01-16T10:07:47;100067.72;;;0.99;91.08
163;BME280;3946;48.958;8.284;2024-01-16T10:10:32;100069.16;;;0.80;90.25
163;BME280;3946;48.958;8.284;2024-01-16T10:13:18;100056.53;;;0.75;90.29
163;BME280;3946;48.958;8.284;2024-01-16T10:16:04;100042.78;;;0.81;89.75
163;BME280;3946;48.958;8.284;2024-01-16T10:18:49;100052.00;;;0.85;90.25
163;BME280;3946;48.958;8.284;2024-01-16T10:21:35;100046.50;;;0.69;89.92
163;BME280;3946;48.958;8.284;2024-01-16T10:24:21;100040.66;;;0.95;89.49
163;BME280;3946;48.958;8.284;2024-01-16T10:27:07;100032.13;;;1.24;89.41
163;BME280;3946;48.958;8.284;2024-01-16T10:29:55;100019.81;;;1.36;88.46
163;BME280;3946;48.958;8.284;2024-01-16T10:32:42;100008.19;;;1.28;88.11
163;BME280;3946;48.958;8.284;2024-01-16T10:35:27;100020.97;;;1.28;86.93
163;BME280;3946;48.958;8.284;2024-01-16T10:38:20;100022.56;;;1.30;86.42
163;BME280;3946;48.958;8.284;2024-01-16T10:41:08;100013.44;;;1.23;86.71
163;BME280;3946;48.958;8.284;2024-01-16T10:44:04;100009.09;;;1.27;86.93
163;BME280;3946;48.958;8.284;2024-01-16T10:46:51;100007.59;;;1.20;87.02
163;BME280;3946;48.958;8.284;2024-01-16T10:49:36;100019.59;;;0.88;87.94
163;BME280;3946;48.958;8.284;2024-01-16T10:52:27;100020.34;;;0.92;87.64
163;BME280;3946;48.958;8.284;2024-01-16T10:55:18;100018.41;;;0.70;88.33
163;BME280;3946;48.958;8.284;2024-01-16T10:58:07;100008.47;;;0.91;88.99
163;BME280;3946;48.958;8.284;2024-01-16T11:00:57;100006.66;;;1.22;87.94
163;BME280;3946;48.958;8.284;2024-01-16T11:03:46;99999.19;;;1.44;86.65
163;BME280;3946;48.958;8.284;2024-01-16T11:06:32;99982.38;;;1.37;86.42
163;BME280;3946;48.958;8.284;2024-01-16T11:09:18;99982.31;;;1.65;85.92
163;BME280;3946;48.958;8.284;2024-01-16T11:12:05;99978.13;;;2.12;84.61
163;BME280;3946;48.958;8.284;2024-01-16T11:14:52;99972.66;;;2.23;83.09
163;BME280;3946;48.958;8.284;2024-01-16T11:17:38;99971.72;;;2.25;82.75
163;BME280;3946;48.958;8.284;2024-01-16T11:20:25;99975.75;;;2.07;82.81
163;BME280;3946;48.958;8.284;2024-01-16T11:23:12;99955.72;;;2.65;81.06
163;BME280;3946;48.958;8.284;2024-01-16T11:25:58;99958.94;;;3.14;82.09
163;BME280;3946;48.958;8.284;2024-01-16T11:28:43;99940.94;;;2.73;79.71
163;BME280;3946;48.958;8.284;2024-01-16T11:31:32;99942.09;;;2.65;79.63
163;BME280;3946;48.958;8.284;2024-01-16T11:34:55;99943.41;;;2.53;79.63
163;BME280;3946;48.958;8.284;2024-01-16T11:37:41;99924.03;;;2.69;79.29
163;BME280;3946;48.958;8.284;2024-01-16T11:40:32;99926.81;;;2.41;79.64
163;BME280;3946;48.958;8.284;2024-01-16T11:43:35;99918.69;;;2.54;79.01
163;BME280;3946;48.958;8.284;2024-01-16T11:46:21;99916.53;;;2.65;78.34
163;BME280;3946;48.958;8.284;2024-01-16T11:49:07;99904.84;;;2.59;78.45
163;BME280;3946;48.958;8.284;2024-01-16T11:51:53;99902.38;;;2.78;77.94
163;BME280;3946;48.958;8.284;2024-01-16T11:54:39;99902.44;;;2.76;77.57
163;BME280;3946;48.958;8.284;2024-01-16T11:57:49;99884.63;;;2.95;76.70
163;BME280;3946;48.958;8.284;2024-01-16T12:00:40;99885.06;;;3.06;76.67
163;BME280;3946;48.958;8.284;2024-01-16T12:03:26;99877.69;;;2.99;76.15
163;BME280;3946;48.958;8.284;2024-01-16T12:06:16;99869.34;;;2.94;76.24
163;BME280;3946;48.958;8.284;2024-01-16T12:09:11;99864.22;;;2.73;75.91
163;BME280;3946;48.958;8.284;2024-01-16T12:11:58;99865.72;;;2.99;75.74
163;BME280;3946;48.958;8.284;2024-01-16T12:14:51;99860.25;;;3.08;75.55
163;BME280;3946;48.958;8.284;2024-01-16T12:17:37;99859.00;;;3.17;74.27
163;BME280;3946;48.958;8.284;2024-01-16T12:20:23;99853.50;;;3.06;74.25
163;BME280;3946;48.958;8.284;2024-01-16T12:23:10;99854.91;;;3.13;74.91
163;BME280;3946;48.958;8.284;2024-01-16T12:25:56;99869.34;;;2.94;77.00
163;BME280;3946;48.958;8.284;2024-01-16T12:28:43;99857.47;;;3.13;75.20
163;BME280;3946;48.958;8.284;2024-01-16T12:31:29;99852.41;;;3.11;74.76
163;BME280;3946;48.958;8.284;2024-01-16T12:34:14;99857.16;;;3.21;74.28
163;BME280;3946;48.958;8.284;2024-01-16T12:37:04;99850.41;;;2.98;74.56
163;BME280;3946;48.958;8.284;2024-01-16T12:39:52;99844.66;;;2.93;74.55
163;BME280;3946;48.958;8.284;2024-01-16T12:42:37;99834.25;;;3.38;72.78
163;BME280;3946;48.958;8.284;2024-01-16T12:45:23;99825.56;;;3.22;72.52
163;BME280;3946;48.958;8.284;2024-01-16T12:48:08;99820.16;;;3.28;71.61
163;BME280;3946;48.958;8.284;2024-01-16T12:50:58;99819.84;;;2.95;73.19
163;BME280;3946;48.958;8.284;2024-01-16T12:53:44;99814.97;;;3.09;71.79
163;BME280;3946;48.958;8.284;2024-01-16T12:56:31;99814.19;;;3.08;72.23
163;BME280;3946;48.958;8.284;2024-01-16T12:59:16;99808.41;;;3.03;72.10
163;BME280;3946;48.958;8.284;2024-01-16T13:02:02;99806.03;;;3.19;72.11
163;BME280;3946;48.958;8.284;2024-01-16T13:04:47;99799.00;;;3.24;71.71
163;BME280;3946;48.958;8.284;2024-01-16T13:07:32;99799.25;;;3.18;72.27
163;BME280;3946;48.958;8.284;2024-01-16T13:10:19;99795.41;;;3.28;72.11
163;BME280;3946;48.958;8.284;2024-01-16T13:13:13;99798.59;;;3.33;71.38
163;BME280;3946;48.958;8.284;2024-01-16T13:15:59;99779.13;;;3.29;70.25
163;BME280;3946;48.958;8.284;2024-01-16T13:18:44;99777.16;;;3.36;70.43
163;BME280;3946;48.958;8.284;2024-01-16T13:21:29;99771.38;;;2.92;70.70
163;BME280;3946;48.958;8.284;2024-01-16T13:24:15;99771.69;;;3.25;70.37
163;BME280;3946;48.958;8.284;2024-01-16T13:27:01;99770.84;;;3.24;70.88
163;BME280;3946;48.958;8.284;2024-01-16T13:29:49;99770.97;;;3.21;70.63
163;BME280;3946;48.958;8.284;2024-01-16T13:32:35;99761.34;;;3.07;70.16
163;BME280;3946;48.958;8.284;2024-01-16T13:35:20;99764.25;;;3.19;70.80
163;BME280;3946;48.958;8.284;2024-01-16T13:38:06;99749.78;;;3.17;70.62
163;BME280;3946;48.958;8.284;2024-01-16T13:40:51;99736.00;;;3.01;70.69
163;BME280;3946;48.958;8.284;2024-01-16T13:43:37;99732.97;;;3.12;70.71
163;BME280;3946;48.958;8.284;2024-01-16T13:46:24;99731.88;;;3.17;70.04
163;BME280;3946;48.958;8.284;2024-01-16T13:49:09;99714.84;;;3.16;69.95
163;BME280;3946;48.958;8.284;2024-01-16T13:51:54;99735.03;;;3.04;70.86
163;BME280;3946;48.958;8.284;2024-01-16T13:54:39;99728.06;;;2.87;69.28
163;BME280;3946;48.958;8.284;2024-01-16T13:57:26;99721.28;;;2.86;68.97
163;BME280;3946;48.958;8.284;2024-01-16T14:00:12;99714.75;;;2.99;67.78
163;BME280;3946;48.958;8.284;2024-01-16T14:03:00;99716.34;;;3.02;67.54
163;BME280;3946;48.958;8.284;2024-01-16T14:05:47;99707.91;;;2.79;66.52
163;BME280;3946;48.958;8.284;2024-01-16T14:08:33;99716.81;;;2.71;67.56
163;BME280;3946;48.958;8.284;2024-01-16T14:11:19;99722.97;;;2.87;67.36
163;BME280;3946;48.958;8.284;2024-01-16T14:14:04;99726.47;;;2.64;67.73
163;BME280;3946;48.958;8.284;2024-01-16T14:16:49;99728.84;;;2.69;68.10
163;BME280;3946;48.958;8.284;2024-01-16T14:19:36;99738.81;;;2.55;68.62
163;BME280;3946;48.958;8.284;2024-01-16T14:22:22;99748.19;;;2.54;68.75
163;BME280;3946;48.958;8.284;2024-01-16T14:25:08;99734.84;;;2.68;68.08
163;BME280;3946;48.958;8.284;2024-01-16T14:27:57;99729.16;;;2.61;67.67
163;BME280;3946;48.958;8.284;2024-01-16T14:30:43;99740.59;;;2.53;68.14
163;BME280;3946;48.958;8.284;2024-01-16T14:33:29;99735.72;;;2.46;67.75
163;BME280;3946;48.958;8.284;2024-01-16T14:36:15;99724.25;;;2.57;67.95
163;BME280;3946;48.958;8.284;2024-01-16T14:39:02;99721.88;;;2.52;67.29
163;BME280;3946;48.958;8.284;2024-01-16T14:41:47;99721.16;;;2.49;67.06
163;BME280;3946;48.958;8.284;2024-01-16T14:44:33;99726.13;;;2.31;68.12
163;BME280;3946;48.958;8.284;2024-01-16T14:47:18;99719.19;;;2.55;66.93
163;BME280;3946;48.958;8.284;2024-01-16T14:50:04;99723.88;;;2.24;68.63
163;BME280;3946;48.958;8.284;2024-01-16T14:52:51;99729.31;;;2.36;68.86
163;BME280;3946;48.958;8.284;2024-01-16T14:55:36;99731.66;;;2.21;68.78
163;BME280;3946;48.958;8.284;2024-01-16T14:58:21;99730.13;;;1.95;69.59
163;BME280;3946;48.958;8.284;2024-01-16T15:01:07;99731.53;;;2.02;70.36
163;BME280;3946;48.958;8.284;2024-01-16T15:03:52;99730.00;;;1.76;70.80
163;BME280;3946;48.958;8.284;2024-01-16T15:06:38;99728.09;;;2.03;70.58
163;BME280;3946;48.958;8.284;2024-01-16T15:09:25;99735.75;;;1.81;71.47